Ohio — C6XL7 — position and weather

sailwx.info

Track history (hours):
 
Tides and Currents Weather Stations Pressure Air Temp Water Temp Dewpoint Dewpoint Depression Visibility Wind Speed Wind Dir Waves Ship Positions

Ohio

Last reported at 2017-Nov-18 19:56 UTC. Time now 2017-Nov-23 09:37 UTC.
Position N 35°47' E 014°40'.

Length 244 m; draft 9 m.

Type: Tanker. MMSI: 311013400.

Date/timePositionNaut miles runAvg speedWind from/ knotsBaromVisibWave heightAir tempDewpointWater temp
2017-Nov-18 19:56N 35°47' E 014°40'4 0.2
2017-Nov-18 00:08N 35°49' E 014°36'0 0.0
2017-Nov-17 23:56N 35°49' E 014°36'0 0.0
2017-Nov-17 23:29N 35°49' E 014°36'0 0.0
2017-Nov-17 22:59N 35°49' E 014°36'0 0.0
2017-Nov-17 22:29N 35°49' E 014°36'0 0.0
2017-Nov-17 21:56N 35°49' E 014°36'0 0.0
2017-Nov-17 21:23N 35°49' E 014°36'0 0.0
2017-Nov-17 20:59N 35°49' E 014°36'0 0.0
2017-Nov-17 20:26N 35°49' E 014°36'0 0.0
2017-Nov-17 19:56N 35°49' E 014°36'0 0.0
2017-Nov-17 19:29N 35°49' E 014°36'0 0.3
2017-Nov-17 18:59N 35°50' E 014°36'2 3.1
2017-Nov-17 18:30N 35°49' E 014°38'4 7.6
2017-Nov-17 18:00N 35°49' E 014°43'3 6.8
2017-Nov-17 17:30N 35°50' E 014°47'4 7.6
2017-Nov-17 16:59N 35°52' E 014°51'5 7.2
2017-Nov-17 16:22N 35°56' E 014°53'3 7.9
2017-Nov-17 16:00N 35°58' E 014°51'0 0.5
2017-Nov-17 15:29N 35°58' E 014°52'0 0.0
2017-Nov-17 14:59N 35°58' E 014°52'0 0.1
2017-Nov-17 14:26N 35°58' E 014°52'0 0.1
2017-Nov-17 13:59N 35°58' E 014°52'0 0.1
2017-Nov-17 13:29N 35°58' E 014°52'0 0.0
2017-Nov-17 12:53N 35°58' E 014°52'0 0.0
2017-Nov-17 12:29N 35°58' E 014°52'0 0.0
2017-Nov-17 11:59N 35°58' E 014°52'0 0.1
2017-Nov-17 11:29N 35°58' E 014°52'0 0.0
2017-Nov-17 10:56N 35°58' E 014°52'0 0.0
2017-Nov-17 10:29N 35°58' E 014°52'0 0.0
2017-Nov-17 09:59N 35°58' E 014°52'0 0.0
2017-Nov-17 09:29N 35°58' E 014°52'0 0.0
2017-Nov-17 08:59N 35°58' E 014°52'0 0.0
2017-Nov-17 08:29N 35°58' E 014°52'0 0.0
2017-Nov-17 07:59N 35°58' E 014°52'0 0.1
2017-Nov-17 07:29N 35°58' E 014°52'0 0.1
2017-Nov-17 06:59N 35°58' E 014°52'0 0.2
2017-Nov-17 06:29N 35°58' E 014°52'0 0.2
2017-Nov-17 05:56N 35°58' E 014°52'0 0.0
2017-Nov-17 05:29N 35°58' E 014°52'0 0.0
2017-Nov-17 04:56N 35°58' E 014°52'0 0.0
2017-Nov-17 04:29N 35°58' E 014°52'0 0.0
2017-Nov-17 03:59N 35°58' E 014°52'0 0.0
2017-Nov-17 03:29N 35°58' E 014°52'0 0.1
2017-Nov-17 02:56N 35°58' E 014°52'0 0.0
2017-Nov-17 02:29N 35°58' E 014°52'0 0.0
2017-Nov-17 01:56N 35°58' E 014°52'0 0.0
2017-Nov-17 01:20N 35°58' E 014°52'0 0.0
2017-Nov-17 00:59N 35°58' E 014°52'0 0.0
2017-Nov-17 00:29N 35°58' E 014°52'0 0.1
2017-Nov-16 23:59N 35°58' E 014°52'0 0.0
2017-Nov-16 23:23N 35°58' E 014°52'0 0.1
2017-Nov-16 22:56N 35°58' E 014°52'0 0.0
2017-Nov-16 22:29N 35°58' E 014°52'0 0.0
2017-Nov-16 21:59N 35°58' E 014°52'0 0.1
2017-Nov-16 21:26N 35°58' E 014°52'0 0.1
2017-Nov-16 20:59N 35°58' E 014°52'0 0.0
2017-Nov-16 20:23N 35°58' E 014°52'0 0.2
2017-Nov-16 19:59N 35°58' E 014°52'0 0.0
2017-Nov-16 19:29N 35°58' E 014°52'0 0.1
2017-Nov-16 18:59N 35°58' E 014°52'0 0.1
2017-Nov-16 18:20N 35°58' E 014°52'0 0.0
2017-Nov-16 17:59N 35°58' E 014°52'0 0.0
2017-Nov-16 17:29N 35°58' E 014°52'0 0.0
2017-Nov-16 16:56N 35°58' E 014°52'0 0.0
2017-Nov-16 16:29N 35°58' E 014°52'0 0.0
2017-Nov-16 15:59N 35°58' E 014°52'0 0.0
2017-Nov-16 15:23N 35°58' E 014°52'0 0.0
2017-Nov-16 14:59N 35°58' E 014°52'0 0.0
2017-Nov-16 14:23N 35°58' E 014°52'0 0.0
2017-Nov-16 13:56N 35°58' E 014°52'0 0.0
2017-Nov-16 13:29N 35°58' E 014°52'0 0.0
2017-Nov-16 12:59N 35°58' E 014°52'0 0.0
2017-Nov-16 12:29N 35°58' E 014°52'0 0.0
2017-Nov-16 11:59N 35°58' E 014°52'0 0.0
2017-Nov-16 11:29N 35°58' E 014°52'0 0.1
2017-Nov-16 10:59N 35°58' E 014°52'0 0.0
2017-Nov-16 10:29N 35°58' E 014°52'0 0.1
2017-Nov-16 09:59N 35°58' E 014°52'0 0.1
2017-Nov-16 09:26N 35°58' E 014°51'0 0.0
2017-Nov-16 08:50N 35°58' E 014°51'0 0.0
2017-Nov-16 08:29N 35°58' E 014°51'0 0.3
2017-Nov-16 07:59N 35°58' E 014°52'0 0.2
2017-Nov-16 07:23N 35°59' E 014°52'0 0.2
2017-Nov-16 07:00N 35°59' E 014°52'0 0.0
2017-Nov-16 06:30N 35°59' E 014°52'0 0.1
2017-Nov-16 05:37N 35°59' E 014°52'0 0.1
2017-Nov-16 05:29N 35°59' E 014°52'0 0.3
2017-Nov-16 05:00N 35°59' E 014°51'1 2.4
2017-Nov-16 04:30N 35°60' E 014°52'  
2017-Nov-11 11:23N 44°14' E 013°55'613.1
2017-Nov-11 10:54N 44°19' E 013°50'512.9
2017-Nov-11 10:30N 44°23' E 013°46'713.2
2017-Nov-11 10:00N 44°29' E 013°41'613.1
2017-Nov-11 09:30N 44°34' E 013°36'713.1
2017-Nov-11 09:00N 44°40' E 013°31'713.1
2017-Nov-11 08:30N 44°45' E 013°26'613.1
2017-Nov-11 08:00N 44°51' E 013°21'713.1
2017-Nov-11 07:30N 44°57' E 013°16'713.1
2017-Nov-11 07:00N 45°02' E 013°11'613.0
2017-Nov-11 06:30N 45°07' E 013°06'713.1
2017-Nov-11 06:00N 45°14' E 013°03'612.9
2017-Nov-11 05:30N 45°20' E 013°01'611.2
2017-Nov-11 05:00N 45°25' E 013°04'612.8
2017-Nov-11 04:30N 45°29' E 013°11'612.8
2017-Nov-11 04:00N 45°33' E 013°18'713.1
2017-Nov-11 03:30N 45°36' E 013°27'612.6
2017-Nov-11 03:00N 45°38' E 013°35'611.6
2017-Nov-11 02:30N 45°37' E 013°43'2 4.5
2017-Nov-11 02:00N 45°37' E 013°47'0 0.0
2017-Nov-11 01:30N 45°37' E 013°47'0 0.0
2017-Nov-11 01:00N 45°37' E 013°47'0 0.0
2017-Nov-11 00:30N 45°37' E 013°47'0 0.0
2017-Nov-11 00:00N 45°37' E 013°47'0 0.0
2017-Nov-10 23:30N 45°37' E 013°47'0 0.0
2017-Nov-10 23:00N 45°37' E 013°47'0 0.0
2017-Nov-10 22:30N 45°37' E 013°47'0 0.0
2017-Nov-10 22:00N 45°37' E 013°47'0 0.0
2017-Nov-10 21:30N 45°37' E 013°47'0 0.0
2017-Nov-10 21:00N 45°37' E 013°47'0 0.0
2017-Nov-10 20:30N 45°37' E 013°47'0 0.0
2017-Nov-10 20:00N 45°37' E 013°47'0 0.0
2017-Nov-10 19:30N 45°37' E 013°47'0 0.0
2017-Nov-10 19:00N 45°37' E 013°47'0 0.0
2017-Nov-10 18:30N 45°37' E 013°47'0 0.0
2017-Nov-10 18:00N 45°37' E 013°47'0 0.0
2017-Nov-10 17:30N 45°37' E 013°47'0 0.0
2017-Nov-10 17:00N 45°37' E 013°47'0 0.0
2017-Nov-10 16:30N 45°37' E 013°47'0 0.0
2017-Nov-10 16:00N 45°37' E 013°47'0 0.0
2017-Nov-10 15:30N 45°37' E 013°47'0 0.0
2017-Nov-10 15:00N 45°37' E 013°47'0 0.0
2017-Nov-10 14:30N 45°37' E 013°47'0 0.0
2017-Nov-10 14:00N 45°37' E 013°47'0 0.0
2017-Nov-10 13:30N 45°37' E 013°47'0 0.0
2017-Nov-10 13:00N 45°37' E 013°47'0 0.0
2017-Nov-10 12:30N 45°37' E 013°47'0 0.0
2017-Nov-10 12:00N 45°37' E 013°47'0 0.0
2017-Nov-10 11:30N 45°37' E 013°47'0 0.0
2017-Nov-10 11:00N 45°37' E 013°47'0 0.0
2017-Nov-10 10:30N 45°37' E 013°47'0 0.0
2017-Nov-10 10:00N 45°37' E 013°47'0 0.0
2017-Nov-10 09:30N 45°37' E 013°47'0 0.0
2017-Nov-10 09:00N 45°37' E 013°47'0 0.0
2017-Nov-10 08:30N 45°37' E 013°47'0 0.0
2017-Nov-10 08:00N 45°37' E 013°47'0 0.0
2017-Nov-10 07:30N 45°37' E 013°47'0 0.0
2017-Nov-10 07:00N 45°37' E 013°47'0 0.0
2017-Nov-10 06:30N 45°37' E 013°47'0 0.0
2017-Nov-10 06:00N 45°37' E 013°47'0 0.0
2017-Nov-10 05:30N 45°37' E 013°47'0 0.0
2017-Nov-10 05:00N 45°37' E 013°47'0 0.0
2017-Nov-10 04:30N 45°37' E 013°47'0 0.0
2017-Nov-10 04:00N 45°37' E 013°47'0 0.0
2017-Nov-10 03:30N 45°37' E 013°47'0 0.0
2017-Nov-10 03:00N 45°37' E 013°47'0 0.0
2017-Nov-10 02:30N 45°37' E 013°47'0 0.0
2017-Nov-10 02:00N 45°37' E 013°47'0 0.0
2017-Nov-10 01:30N 45°37' E 013°47'0 0.0
2017-Nov-10 01:00N 45°37' E 013°47'0 0.0
2017-Nov-10 00:30N 45°37' E 013°47'0 0.0
2017-Nov-10 00:00N 45°37' E 013°47'0 0.0
2017-Nov-09 23:30N 45°37' E 013°47'0 0.0
2017-Nov-09 23:00N 45°37' E 013°47'0 0.0
2017-Nov-09 22:30N 45°37' E 013°47'0 0.0
2017-Nov-09 22:00N 45°37' E 013°47'0 0.0
2017-Nov-09 21:30N 45°37' E 013°47'0 0.0
2017-Nov-09 21:00N 45°37' E 013°47'0 0.0
2017-Nov-09 20:30N 45°37' E 013°47'0 0.0
2017-Nov-09 20:00N 45°37' E 013°47'0 0.0
2017-Nov-09 19:30N 45°37' E 013°47'0 0.0
2017-Nov-09 19:00N 45°37' E 013°47'0 0.0
2017-Nov-09 18:30N 45°37' E 013°47'0 0.0
2017-Nov-09 18:00N 45°37' E 013°47'0 0.0
2017-Nov-09 17:30N 45°37' E 013°47'0 0.0
2017-Nov-09 17:00N 45°37' E 013°47'0 0.0
2017-Nov-09 16:30N 45°37' E 013°47'0 0.0
2017-Nov-09 15:59N 45°37' E 013°47'0 0.0
2017-Nov-09 15:30N 45°37' E 013°47'0 0.0
2017-Nov-09 15:00N 45°37' E 013°47'0 0.0
2017-Nov-09 14:30N 45°37' E 013°47'0 0.0
2017-Nov-09 14:00N 45°37' E 013°47'0 0.0
2017-Nov-09 13:30N 45°37' E 013°47'0 0.0
2017-Nov-09 13:00N 45°37' E 013°47'1 1.3
2017-Nov-09 12:30N 45°37' E 013°46'3 5.3
2017-Nov-09 12:00N 45°37' E 013°42'1 2.1
2017-Nov-09 11:30N 45°38' E 013°41'0 0.2
2017-Nov-09 10:48N 45°38' E 013°41'0 0.0
2017-Nov-09 10:21N 45°38' E 013°41'0 0.0
2017-Nov-09 09:57N 45°38' E 013°41'0 0.0
2017-Nov-09 09:31N 45°38' E 013°41'0 0.0
2017-Nov-09 09:00N 45°38' E 013°41'0 0.0
2017-Nov-09 08:30N 45°38' E 013°41'0 0.0
2017-Nov-09 08:00N 45°38' E 013°41'0 0.0
2017-Nov-09 07:30N 45°38' E 013°41'0 0.0
2017-Nov-09 07:00N 45°38' E 013°41'0 0.0
2017-Nov-09 06:30N 45°38' E 013°41'0 0.0
2017-Nov-09 06:00N 45°38' E 013°41'0 0.0
2017-Nov-09 05:24N 45°38' E 013°41'0 0.0
2017-Nov-09 04:45N 45°38' E 013°41'0 0.0
2017-Nov-09 04:30N 45°38' E 013°41'0 0.1
2017-Nov-09 04:00N 45°38' E 013°41'0 0.0
2017-Nov-09 03:30N 45°38' E 013°41'0 0.0
2017-Nov-09 02:57N 45°38' E 013°41'0 0.0
2017-Nov-09 02:24N 45°38' E 013°41'0 0.1
2017-Nov-09 01:54N 45°38' E 013°41'0 0.1
2017-Nov-09 01:30N 45°38' E 013°41'0 0.1
2017-Nov-09 00:48N 45°38' E 013°41'0 0.0
2017-Nov-09 00:30N 45°38' E 013°41'0 0.0
2017-Nov-09 00:00N 45°38' E 013°41'0 0.0
2017-Nov-08 23:30N 45°38' E 013°41'0 0.0
2017-Nov-08 22:57N 45°38' E 013°41'0 0.1
2017-Nov-08 22:30N 45°38' E 013°41'0 0.0
2017-Nov-08 22:00N 45°38' E 013°41'0 0.0
2017-Nov-08 21:30N 45°38' E 013°41'0 0.0
2017-Nov-08 21:01N 45°38' E 013°41'0 0.0
2017-Nov-08 20:30N 45°38' E 013°41'0 0.1
2017-Nov-08 20:00N 45°38' E 013°41'  
Track history (hours):
 
Tides and Currents Weather Stations Pressure Air Temp Water Temp Dewpoint Dewpoint Depression Visibility Wind Speed Wind Dir Waves Ship Positions

Ohio

Last reported at 2017-Nov-18 19:56 UTC. Time now 2017-Nov-23 09:37 UTC.
Position N 35°47' E 014°40'.

Length 244 m; draft 9 m.

Type: Tanker. MMSI: 311013400.

Date/timePositionNaut miles runAvg speedWind from/ knotsBaromVisibWave heightAir tempDewpointWater temp
2017-Nov-18 19:56N 35°47' E 014°40'4 0.2
2017-Nov-18 00:08N 35°49' E 014°36'0 0.0
2017-Nov-17 23:56N 35°49' E 014°36'0 0.0
2017-Nov-17 23:29N 35°49' E 014°36'0 0.0
2017-Nov-17 22:59N 35°49' E 014°36'0 0.0
2017-Nov-17 22:29N 35°49' E 014°36'0 0.0
2017-Nov-17 21:56N 35°49' E 014°36'0 0.0
2017-Nov-17 21:23N 35°49' E 014°36'0 0.0
2017-Nov-17 20:59N 35°49' E 014°36'0 0.0
2017-Nov-17 20:26N 35°49' E 014°36'0 0.0
2017-Nov-17 19:56N 35°49' E 014°36'0 0.0
2017-Nov-17 19:29N 35°49' E 014°36'0 0.3
2017-Nov-17 18:59N 35°50' E 014°36'2 3.1
2017-Nov-17 18:30N 35°49' E 014°38'4 7.6
2017-Nov-17 18:00N 35°49' E 014°43'3 6.8
2017-Nov-17 17:30N 35°50' E 014°47'4 7.6
2017-Nov-17 16:59N 35°52' E 014°51'5 7.2
2017-Nov-17 16:22N 35°56' E 014°53'3 7.9
2017-Nov-17 16:00N 35°58' E 014°51'0 0.5
2017-Nov-17 15:29N 35°58' E 014°52'0 0.0
2017-Nov-17 14:59N 35°58' E 014°52'0 0.1
2017-Nov-17 14:26N 35°58' E 014°52'0 0.1
2017-Nov-17 13:59N 35°58' E 014°52'0 0.1
2017-Nov-17 13:29N 35°58' E 014°52'0 0.0
2017-Nov-17 12:53N 35°58' E 014°52'0 0.0
2017-Nov-17 12:29N 35°58' E 014°52'0 0.0
2017-Nov-17 11:59N 35°58' E 014°52'0 0.1
2017-Nov-17 11:29N 35°58' E 014°52'0 0.0
2017-Nov-17 10:56N 35°58' E 014°52'0 0.0
2017-Nov-17 10:29N 35°58' E 014°52'0 0.0
2017-Nov-17 09:59N 35°58' E 014°52'0 0.0
2017-Nov-17 09:29N 35°58' E 014°52'0 0.0
2017-Nov-17 08:59N 35°58' E 014°52'0 0.0
2017-Nov-17 08:29N 35°58' E 014°52'0 0.0
2017-Nov-17 07:59N 35°58' E 014°52'0 0.1
2017-Nov-17 07:29N 35°58' E 014°52'0 0.1
2017-Nov-17 06:59N 35°58' E 014°52'0 0.2
2017-Nov-17 06:29N 35°58' E 014°52'0 0.2
2017-Nov-17 05:56N 35°58' E 014°52'0 0.0
2017-Nov-17 05:29N 35°58' E 014°52'0 0.0
2017-Nov-17 04:56N 35°58' E 014°52'0 0.0
2017-Nov-17 04:29N 35°58' E 014°52'0 0.0
2017-Nov-17 03:59N 35°58' E 014°52'0 0.0
2017-Nov-17 03:29N 35°58' E 014°52'0 0.1
2017-Nov-17 02:56N 35°58' E 014°52'0 0.0
2017-Nov-17 02:29N 35°58' E 014°52'0 0.0
2017-Nov-17 01:56N 35°58' E 014°52'0 0.0
2017-Nov-17 01:20N 35°58' E 014°52'0 0.0
2017-Nov-17 00:59N 35°58' E 014°52'0 0.0
2017-Nov-17 00:29N 35°58' E 014°52'0 0.1
2017-Nov-16 23:59N 35°58' E 014°52'0 0.0
2017-Nov-16 23:23N 35°58' E 014°52'0 0.1
2017-Nov-16 22:56N 35°58' E 014°52'0 0.0
2017-Nov-16 22:29N 35°58' E 014°52'0 0.0
2017-Nov-16 21:59N 35°58' E 014°52'0 0.1
2017-Nov-16 21:26N 35°58' E 014°52'0 0.1
2017-Nov-16 20:59N 35°58' E 014°52'0 0.0
2017-Nov-16 20:23N 35°58' E 014°52'0 0.2
2017-Nov-16 19:59N 35°58' E 014°52'0 0.0
2017-Nov-16 19:29N 35°58' E 014°52'0 0.1
2017-Nov-16 18:59N 35°58' E 014°52'0 0.1
2017-Nov-16 18:20N 35°58' E 014°52'0 0.0
2017-Nov-16 17:59N 35°58' E 014°52'0 0.0
2017-Nov-16 17:29N 35°58' E 014°52'0 0.0
2017-Nov-16 16:56N 35°58' E 014°52'0 0.0
2017-Nov-16 16:29N 35°58' E 014°52'0 0.0
2017-Nov-16 15:59N 35°58' E 014°52'0 0.0
2017-Nov-16 15:23N 35°58' E 014°52'0 0.0
2017-Nov-16 14:59N 35°58' E 014°52'0 0.0
2017-Nov-16 14:23N 35°58' E 014°52'0 0.0
2017-Nov-16 13:56N 35°58' E 014°52'0 0.0
2017-Nov-16 13:29N 35°58' E 014°52'0 0.0
2017-Nov-16 12:59N 35°58' E 014°52'0 0.0
2017-Nov-16 12:29N 35°58' E 014°52'0 0.0
2017-Nov-16 11:59N 35°58' E 014°52'0 0.0
2017-Nov-16 11:29N 35°58' E 014°52'0 0.1
2017-Nov-16 10:59N 35°58' E 014°52'0 0.0
2017-Nov-16 10:29N 35°58' E 014°52'0 0.1
2017-Nov-16 09:59N 35°58' E 014°52'0 0.1
2017-Nov-16 09:26N 35°58' E 014°51'0 0.0
2017-Nov-16 08:50N 35°58' E 014°51'0 0.0
2017-Nov-16 08:29N 35°58' E 014°51'0 0.3
2017-Nov-16 07:59N 35°58' E 014°52'0 0.2
2017-Nov-16 07:23N 35°59' E 014°52'0 0.2
2017-Nov-16 07:00N 35°59' E 014°52'0 0.0
2017-Nov-16 06:30N 35°59' E 014°52'0 0.1
2017-Nov-16 05:37N 35°59' E 014°52'0 0.1
2017-Nov-16 05:29N 35°59' E 014°52'0 0.3
2017-Nov-16 05:00N 35°59' E 014°51'1 2.4
2017-Nov-16 04:30N 35°60' E 014°52'  
2017-Nov-11 11:23N 44°14' E 013°55'613.1
2017-Nov-11 10:54N 44°19' E 013°50'512.9
2017-Nov-11 10:30N 44°23' E 013°46'713.2
2017-Nov-11 10:00N 44°29' E 013°41'613.1
2017-Nov-11 09:30N 44°34' E 013°36'713.1
2017-Nov-11 09:00N 44°40' E 013°31'713.1
2017-Nov-11 08:30N 44°45' E 013°26'613.1
2017-Nov-11 08:00N 44°51' E 013°21'713.1
2017-Nov-11 07:30N 44°57' E 013°16'713.1
2017-Nov-11 07:00N 45°02' E 013°11'613.0
2017-Nov-11 06:30N 45°07' E 013°06'713.1
2017-Nov-11 06:00N 45°14' E 013°03'612.9
2017-Nov-11 05:30N 45°20' E 013°01'611.2
2017-Nov-11 05:00N 45°25' E 013°04'612.8
2017-Nov-11 04:30N 45°29' E 013°11'612.8
2017-Nov-11 04:00N 45°33' E 013°18'713.1
2017-Nov-11 03:30N 45°36' E 013°27'612.6
2017-Nov-11 03:00N 45°38' E 013°35'611.6
2017-Nov-11 02:30N 45°37' E 013°43'2 4.5
2017-Nov-11 02:00N 45°37' E 013°47'0 0.0
2017-Nov-11 01:30N 45°37' E 013°47'0 0.0
2017-Nov-11 01:00N 45°37' E 013°47'0 0.0
2017-Nov-11 00:30N 45°37' E 013°47'0 0.0
2017-Nov-11 00:00N 45°37' E 013°47'0 0.0
2017-Nov-10 23:30N 45°37' E 013°47'0 0.0
2017-Nov-10 23:00N 45°37' E 013°47'0 0.0
2017-Nov-10 22:30N 45°37' E 013°47'0 0.0
2017-Nov-10 22:00N 45°37' E 013°47'0 0.0
2017-Nov-10 21:30N 45°37' E 013°47'0 0.0
2017-Nov-10 21:00N 45°37' E 013°47'0 0.0
2017-Nov-10 20:30N 45°37' E 013°47'0 0.0
2017-Nov-10 20:00N 45°37' E 013°47'0 0.0
2017-Nov-10 19:30N 45°37' E 013°47'0 0.0
2017-Nov-10 19:00N 45°37' E 013°47'0 0.0
2017-Nov-10 18:30N 45°37' E 013°47'0 0.0
2017-Nov-10 18:00N 45°37' E 013°47'0 0.0
2017-Nov-10 17:30N 45°37' E 013°47'0 0.0
2017-Nov-10 17:00N 45°37' E 013°47'0 0.0
2017-Nov-10 16:30N 45°37' E 013°47'0 0.0
2017-Nov-10 16:00N 45°37' E 013°47'0 0.0
2017-Nov-10 15:30N 45°37' E 013°47'0 0.0
2017-Nov-10 15:00N 45°37' E 013°47'0 0.0
2017-Nov-10 14:30N 45°37' E 013°47'0 0.0
2017-Nov-10 14:00N 45°37' E 013°47'0 0.0
2017-Nov-10 13:30N 45°37' E 013°47'0 0.0
2017-Nov-10 13:00N 45°37' E 013°47'0 0.0
2017-Nov-10 12:30N 45°37' E 013°47'0 0.0
2017-Nov-10 12:00N 45°37' E 013°47'0 0.0
2017-Nov-10 11:30N 45°37' E 013°47'0 0.0
2017-Nov-10 11:00N 45°37' E 013°47'0 0.0
2017-Nov-10 10:30N 45°37' E 013°47'0 0.0
2017-Nov-10 10:00N 45°37' E 013°47'0 0.0
2017-Nov-10 09:30N 45°37' E 013°47'0 0.0
2017-Nov-10 09:00N 45°37' E 013°47'0 0.0
2017-Nov-10 08:30N 45°37' E 013°47'0 0.0
2017-Nov-10 08:00N 45°37' E 013°47'0 0.0
2017-Nov-10 07:30N 45°37' E 013°47'0 0.0
2017-Nov-10 07:00N 45°37' E 013°47'0 0.0
2017-Nov-10 06:30N 45°37' E 013°47'0 0.0
2017-Nov-10 06:00N 45°37' E 013°47'0 0.0
2017-Nov-10 05:30N 45°37' E 013°47'0 0.0
2017-Nov-10 05:00N 45°37' E 013°47'0 0.0
2017-Nov-10 04:30N 45°37' E 013°47'0 0.0
2017-Nov-10 04:00N 45°37' E 013°47'0 0.0
2017-Nov-10 03:30N 45°37' E 013°47'0 0.0
2017-Nov-10 03:00N 45°37' E 013°47'0 0.0
2017-Nov-10 02:30N 45°37' E 013°47'0 0.0
2017-Nov-10 02:00N 45°37' E 013°47'0 0.0
2017-Nov-10 01:30N 45°37' E 013°47'0 0.0
2017-Nov-10 01:00N 45°37' E 013°47'0 0.0
2017-Nov-10 00:30N 45°37' E 013°47'0 0.0
2017-Nov-10 00:00N 45°37' E 013°47'0 0.0
2017-Nov-09 23:30N 45°37' E 013°47'0 0.0
2017-Nov-09 23:00N 45°37' E 013°47'0 0.0
2017-Nov-09 22:30N 45°37' E 013°47'0 0.0
2017-Nov-09 22:00N 45°37' E 013°47'0 0.0
2017-Nov-09 21:30N 45°37' E 013°47'0 0.0
2017-Nov-09 21:00N 45°37' E 013°47'0 0.0
2017-Nov-09 20:30N 45°37' E 013°47'0 0.0
2017-Nov-09 20:00N 45°37' E 013°47'0 0.0
2017-Nov-09 19:30N 45°37' E 013°47'0 0.0
2017-Nov-09 19:00N 45°37' E 013°47'0 0.0
2017-Nov-09 18:30N 45°37' E 013°47'0 0.0
2017-Nov-09 18:00N 45°37' E 013°47'0 0.0
2017-Nov-09 17:30N 45°37' E 013°47'0 0.0
2017-Nov-09 17:00N 45°37' E 013°47'0 0.0
2017-Nov-09 16:30N 45°37' E 013°47'0 0.0
2017-Nov-09 15:59N 45°37' E 013°47'0 0.0
2017-Nov-09 15:30N 45°37' E 013°47'0 0.0
2017-Nov-09 15:00N 45°37' E 013°47'0 0.0
2017-Nov-09 14:30N 45°37' E 013°47'0 0.0
2017-Nov-09 14:00N 45°37' E 013°47'0 0.0
2017-Nov-09 13:30N 45°37' E 013°47'0 0.0
2017-Nov-09 13:00N 45°37' E 013°47'1 1.3
2017-Nov-09 12:30N 45°37' E 013°46'3 5.3
2017-Nov-09 12:00N 45°37' E 013°42'1 2.1
2017-Nov-09 11:30N 45°38' E 013°41'0 0.2
2017-Nov-09 10:48N 45°38' E 013°41'0 0.0
2017-Nov-09 10:21N 45°38' E 013°41'0 0.0
2017-Nov-09 09:57N 45°38' E 013°41'0 0.0
2017-Nov-09 09:31N 45°38' E 013°41'0 0.0
2017-Nov-09 09:00N 45°38' E 013°41'0 0.0
2017-Nov-09 08:30N 45°38' E 013°41'0 0.0
2017-Nov-09 08:00N 45°38' E 013°41'0 0.0
2017-Nov-09 07:30N 45°38' E 013°41'0 0.0
2017-Nov-09 07:00N 45°38' E 013°41'0 0.0
2017-Nov-09 06:30N 45°38' E 013°41'0 0.0
2017-Nov-09 06:00N 45°38' E 013°41'0 0.0
2017-Nov-09 05:24N 45°38' E 013°41'0 0.0
2017-Nov-09 04:45N 45°38' E 013°41'0 0.0
2017-Nov-09 04:30N 45°38' E 013°41'0 0.1
2017-Nov-09 04:00N 45°38' E 013°41'0 0.0
2017-Nov-09 03:30N 45°38' E 013°41'0 0.0
2017-Nov-09 02:57N 45°38' E 013°41'0 0.0
2017-Nov-09 02:24N 45°38' E 013°41'0 0.1
2017-Nov-09 01:54N 45°38' E 013°41'0 0.1
2017-Nov-09 01:30N 45°38' E 013°41'0 0.1
2017-Nov-09 00:48N 45°38' E 013°41'0 0.0
2017-Nov-09 00:30N 45°38' E 013°41'0 0.0
2017-Nov-09 00:00N 45°38' E 013°41'0 0.0
2017-Nov-08 23:30N 45°38' E 013°41'0 0.0
2017-Nov-08 22:57N 45°38' E 013°41'0 0.1
2017-Nov-08 22:30N 45°38' E 013°41'0 0.0
2017-Nov-08 22:00N 45°38' E 013°41'0 0.0
2017-Nov-08 21:30N 45°38' E 013°41'0 0.0
2017-Nov-08 21:01N 45°38' E 013°41'0 0.0
2017-Nov-08 20:30N 45°38' E 013°41'0 0.1
2017-Nov-08 20:00N 45°38' E 013°41'  

Dump ship's entire track history